sensor_id;sensor_type;location;lat;lon;timestamp;P1;durP1;ratioP1;P2;durP2;ratioP2
27869;SDS011;15225;50.730;4.244;2022-09-29T19:09:16;8.13;;;4.90;;
27869;SDS011;15225;50.730;4.244;2022-09-29T19:11:42;10.25;;;4.78;;
27869;SDS011;15225;50.730;4.244;2022-09-29T19:14:13;8.60;;;4.22;;
27869;SDS011;15225;50.730;4.244;2022-09-29T19:16:39;5.40;;;4.10;;
27869;SDS011;15225;50.730;4.244;2022-09-29T19:19:05;6.15;;;4.03;;
27869;SDS011;15225;50.730;4.244;2022-09-29T19:21:35;9.07;;;4.65;;
27869;SDS011;15225;50.730;4.244;2022-09-29T19:24:02;8.32;;;4.18;;
27869;SDS011;15225;50.730;4.244;2022-09-29T19:26:27;8.70;;;4.65;;
27869;SDS011;15225;50.730;4.244;2022-09-29T19:28:56;9.02;;;4.50;;
27869;SDS011;15225;50.730;4.244;2022-09-29T19:31:21;10.95;;;4.93;;
27869;SDS011;15225;50.730;4.244;2022-09-29T19:33:47;10.77;;;5.03;;
27869;SDS011;15225;50.730;4.244;2022-09-29T19:36:16;9.90;;;4.97;;
27869;SDS011;15225;50.730;4.244;2022-09-29T19:38:44;9.13;;;4.80;;
27869;SDS011;15225;50.730;4.244;2022-09-29T19:41:10;7.60;;;5.07;;
27869;SDS011;15225;50.730;4.244;2022-09-29T19:43:37;6.97;;;4.80;;
27869;SDS011;15225;50.730;4.244;2022-09-29T19:46:08;5.63;;;4.68;;
27869;SDS011;15225;50.730;4.244;2022-09-29T19:48:34;7.88;;;4.90;;
27869;SDS011;15225;50.730;4.244;2022-09-29T19:51:00;12.07;;;5.18;;
27869;SDS011;15225;50.730;4.244;2022-09-29T19:53:44;13.68;;;5.75;;
27869;SDS011;15225;50.730;4.244;2022-09-29T19:56:11;7.50;;;5.93;;
27869;SDS011;15225;50.730;4.244;2022-09-29T19:58:37;11.90;;;6.10;;
27869;SDS011;15225;50.730;4.244;2022-09-29T20:01:07;7.13;;;5.43;;
27869;SDS011;15225;50.730;4.244;2022-09-29T20:03:35;19.60;;;6.28;;
27869;SDS011;15225;50.730;4.244;2022-09-29T20:06:03;9.82;;;5.78;;
27869;SDS011;15225;50.730;4.244;2022-09-29T20:08:30;13.70;;;7.47;;
27869;SDS011;15225;50.730;4.244;2022-09-29T20:11:07;12.55;;;6.80;;
27869;SDS011;15225;50.730;4.244;2022-09-29T20:13:36;10.10;;;5.72;;
27869;SDS011;15225;50.730;4.244;2022-09-29T20:16:08;8.05;;;5.60;;
27869;SDS011;15225;50.730;4.244;2022-09-29T20:18:34;7.00;;;6.07;;
27869;SDS011;15225;50.730;4.244;2022-09-29T20:21:08;13.45;;;6.70;;
27869;SDS011;15225;50.730;4.244;2022-09-29T20:23:39;15.20;;;7.05;;
27869;SDS011;15225;50.730;4.244;2022-09-29T20:26:06;14.57;;;7.13;;
27869;SDS011;15225;50.730;4.244;2022-09-29T20:28:37;7.73;;;6.10;;
27869;SDS011;15225;50.730;4.244;2022-09-29T20:31:04;8.57;;;5.93;;
27869;SDS011;15225;50.730;4.244;2022-09-29T20:33:32;13.32;;;7.35;;
27869;SDS011;15225;50.730;4.244;2022-09-29T20:36:02;10.48;;;7.60;;
27869;SDS011;15225;50.730;4.244;2022-09-29T20:38:39;11.52;;;7.45;;
27869;SDS011;15225;50.730;4.244;2022-09-29T20:41:08;14.18;;;8.35;;
27869;SDS011;15225;50.730;4.244;2022-09-29T20:43:36;9.63;;;7.40;;
27869;SDS011;15225;50.730;4.244;2022-09-29T20:46:03;11.65;;;7.70;;
27869;SDS011;15225;50.730;4.244;2022-09-29T20:48:32;10.18;;;6.40;;
27869;SDS011;15225;50.730;4.244;2022-09-29T20:50:59;12.65;;;7.22;;
27869;SDS011;15225;50.730;4.244;2022-09-29T20:53:32;9.48;;;7.43;;
27869;SDS011;15225;50.730;4.244;2022-09-29T20:58:31;15.80;;;8.15;;
27869;SDS011;15225;50.730;4.244;2022-09-29T21:01:09;13.13;;;8.27;;
27869;SDS011;15225;50.730;4.244;2022-09-29T21:03:40;11.70;;;7.30;;
27869;SDS011;15225;50.730;4.244;2022-09-29T21:06:07;9.82;;;7.40;;
27869;SDS011;15225;50.730;4.244;2022-09-29T21:08:38;13.05;;;8.00;;
27869;SDS011;15225;50.730;4.244;2022-09-29T21:11:05;12.07;;;8.52;;
27869;SDS011;15225;50.730;4.244;2022-09-29T21:13:32;12.20;;;8.80;;
27869;SDS011;15225;50.730;4.244;2022-09-29T21:15:59;15.75;;;8.73;;
